Portada
METAR-TAF:

METAR-TAF

Aeroports :

Samara, Rússia

latitud: 53-12N, longitud: 050-09E, altitud: 44 m

Observació

L'informe es va fer fa 37 minuts, a les 20:00 UTC
Vent 6 kt del Oest
Temperatura -1°C
Humitat 54%
Pressió 1023 hPa
Visibilitat 10 km o més
sense núvols per sota de 1500 mi sense presència de cumulonimbus.

METAR: UWWW 072000Z 28003MPS CAVOK M01/M09 Q1023 R33/CLRD60 NOSIG RMK QFE757/1009

Hora: 00:37 (20:37 UTC)

Pronòstic

L'informe es va fer fa 3 hores i 45 minuts, a les 16:52 UTC
Pronòstic vàlid del 07 a les 18 UTC al 08 a les 18 UTC
Vent 10 kt del Oest amb ràfegues de 19 kt
Visibilitat 10 km o més
Núvols disperses a una alçada de 3300 ft
Evolucionant progressivament
l' 08 a les 07 UTC al 08 a les 09 UTC
Vent 14 kt del Sud-Oest amb ràfegues de 25 kt

TAF: UWWW 071652Z 0718/0818 26005G10MPS 9999 SCT033 TX08/0811Z TNM02/0801Z BECMG 0807/0809 22007G13MPS

Observacions i pronòstics meteorològics de més de 4000 aeroports (METAR i TAF).

Les estacions disponibles són els punts grocs i vermells al mapa.

Posi el ratolí al punt desitjat per veure el nom de l'estació.

Feu clic per veure les observacions i els pronòstics meteorològics.

Per canviar el mapa: feu clic els botons verds amb una creu de color negre per apropar; al botó verd amb un guió per allunyar la imatge; o en les fletxes verdes per a mapes adjacents.


METAR-TAF: